sensor_id;sensor_type;location;lat;lon;timestamp;P1;durP1;ratioP1;P2;durP2;ratioP2
12474;SDS011;6302;42.624;23.334;2023-08-24T00:01:36;10.88;;;9.65;;
12474;SDS011;6302;42.624;23.334;2023-08-24T00:04:03;11.20;;;10.20;;
12474;SDS011;6302;42.624;23.334;2023-08-24T00:06:30;10.27;;;9.27;;
12474;SDS011;6302;42.624;23.334;2023-08-24T00:08:57;10.48;;;9.57;;
12474;SDS011;6302;42.624;23.334;2023-08-24T00:11:24;10.70;;;9.68;;
12474;SDS011;6302;42.624;23.334;2023-08-24T00:13:51;9.38;;;8.57;;
12474;SDS011;6302;42.624;23.334;2023-08-24T00:16:20;9.43;;;8.57;;
12474;SDS011;6302;42.624;23.334;2023-08-24T00:18:47;9.82;;;8.90;;
12474;SDS011;6302;42.624;23.334;2023-08-24T00:21:14;9.83;;;8.93;;
12474;SDS011;6302;42.624;23.334;2023-08-24T00:23:42;9.83;;;8.93;;
12474;SDS011;6302;42.624;23.334;2023-08-24T00:26:09;12.53;;;9.50;;
12474;SDS011;6302;42.624;23.334;2023-08-24T00:28:35;9.65;;;8.85;;
12474;SDS011;6302;42.624;23.334;2023-08-24T00:31:02;10.68;;;8.98;;
12474;SDS011;6302;42.624;23.334;2023-08-24T00:33:30;9.57;;;8.70;;
12474;SDS011;6302;42.624;23.334;2023-08-24T00:35:59;10.82;;;9.73;;
12474;SDS011;6302;42.624;23.334;2023-08-24T00:38:26;10.02;;;9.13;;
12474;SDS011;6302;42.624;23.334;2023-08-24T00:40:53;10.43;;;9.43;;
12474;SDS011;6302;42.624;23.334;2023-08-24T00:43:21;10.40;;;9.30;;
12474;SDS011;6302;42.624;23.334;2023-08-24T00:45:49;10.57;;;9.57;;
12474;SDS011;6302;42.624;23.334;2023-08-24T00:48:16;9.83;;;8.93;;
12474;SDS011;6302;42.624;23.334;2023-08-24T00:50:45;10.47;;;9.27;;
12474;SDS011;6302;42.624;23.334;2023-08-24T00:53:12;10.15;;;9.25;;
12474;SDS011;6302;42.624;23.334;2023-08-24T00:55:39;10.30;;;9.40;;
12474;SDS011;6302;42.624;23.334;2023-08-24T00:58:05;11.50;;;9.00;;
12474;SDS011;6302;42.624;23.334;2023-08-24T01:00:35;9.68;;;8.88;;
12474;SDS011;6302;42.624;23.334;2023-08-24T01:03:02;9.70;;;8.85;;
12474;SDS011;6302;42.624;23.334;2023-08-24T01:05:30;8.77;;;8.07;;
12474;SDS011;6302;42.624;23.334;2023-08-24T01:07:58;10.60;;;9.63;;
12474;SDS011;6302;42.624;23.334;2023-08-24T01:10:25;9.38;;;8.48;;
12474;SDS011;6302;42.624;23.334;2023-08-24T01:13:00;9.88;;;8.98;;
12474;SDS011;6302;42.624;23.334;2023-08-24T01:15:33;10.47;;;9.57;;
12474;SDS011;6302;42.624;23.334;2023-08-24T01:18:04;9.52;;;8.73;;
12474;SDS011;6302;42.624;23.334;2023-08-24T01:20:35;10.55;;;9.27;;
12474;SDS011;6302;42.624;23.334;2023-08-24T01:23:07;11.10;;;8.87;;
12474;SDS011;6302;42.624;23.334;2023-08-24T01:25:52;10.63;;;9.70;;
12474;SDS011;6302;42.624;23.334;2023-08-24T01:28:23;10.10;;;9.20;;
12474;SDS011;6302;42.624;23.334;2023-08-24T01:30:50;9.80;;;8.90;;
12474;SDS011;6302;42.624;23.334;2023-08-24T01:33:17;11.27;;;10.27;;
12474;SDS011;6302;42.624;23.334;2023-08-24T01:35:44;10.52;;;9.55;;
12474;SDS011;6302;42.624;23.334;2023-08-24T01:38:11;11.90;;;9.77;;
12474;SDS011;6302;42.624;23.334;2023-08-24T01:40:44;11.10;;;10.07;;
12474;SDS011;6302;42.624;23.334;2023-08-24T01:43:18;10.82;;;9.70;;
12474;SDS011;6302;42.624;23.334;2023-08-24T01:45:49;10.53;;;9.50;;
12474;SDS011;6302;42.624;23.334;2023-08-24T01:48:18;10.53;;;9.63;;
12474;SDS011;6302;42.624;23.334;2023-08-24T01:50:45;10.03;;;9.20;;
12474;SDS011;6302;42.624;23.334;2023-08-24T01:53:13;10.50;;;9.60;;
12474;SDS011;6302;42.624;23.334;2023-08-24T01:55:40;10.20;;;9.30;;
12474;SDS011;6302;42.624;23.334;2023-08-24T01:58:07;10.43;;;9.45;;
12474;SDS011;6302;42.624;23.334;2023-08-24T02:00:34;10.50;;;9.70;;
12474;SDS011;6302;42.624;23.334;2023-08-24T02:03:02;11.00;;;10.00;;
12474;SDS011;6302;42.624;23.334;2023-08-24T02:05:30;10.20;;;9.30;;
12474;SDS011;6302;42.624;23.334;2023-08-24T02:07:56;10.50;;;9.45;;
12474;SDS011;6302;42.624;23.334;2023-08-24T02:10:25;11.10;;;10.00;;
12474;SDS011;6302;42.624;23.334;2023-08-24T02:12:52;10.43;;;9.53;;
12474;SDS011;6302;42.624;23.334;2023-08-24T02:15:19;10.57;;;9.57;;
12474;SDS011;6302;42.624;23.334;2023-08-24T02:17:45;10.47;;;9.57;;
12474;SDS011;6302;42.624;23.334;2023-08-24T02:20:14;14.87;;;10.20;;
12474;SDS011;6302;42.624;23.334;2023-08-24T02:22:40;11.23;;;10.03;;
12474;SDS011;6302;42.624;23.334;2023-08-24T02:25:09;11.07;;;10.03;;
12474;SDS011;6302;42.624;23.334;2023-08-24T02:27:36;11.30;;;10.10;;
12474;SDS011;6302;42.624;23.334;2023-08-24T02:30:03;11.50;;;10.37;;
12474;SDS011;6302;42.624;23.334;2023-08-24T02:32:30;11.57;;;10.45;;
12474;SDS011;6302;42.624;23.334;2023-08-24T02:34:58;11.37;;;10.37;;
12474;SDS011;6302;42.624;23.334;2023-08-24T02:37:26;12.00;;;10.90;;
12474;SDS011;6302;42.624;23.334;2023-08-24T02:39:53;11.67;;;10.57;;
12474;SDS011;6302;42.624;23.334;2023-08-24T02:42:19;11.67;;;10.67;;
12474;SDS011;6302;42.624;23.334;2023-08-24T02:44:46;12.17;;;11.00;;
12474;SDS011;6302;42.624;23.334;2023-08-24T02:47:13;11.83;;;10.73;;
12474;SDS011;6302;42.624;23.334;2023-08-24T02:49:40;12.03;;;10.83;;
12474;SDS011;6302;42.624;23.334;2023-08-24T02:52:07;10.70;;;9.80;;
12474;SDS011;6302;42.624;23.334;2023-08-24T02:54:35;11.70;;;10.50;;
12474;SDS011;6302;42.624;23.334;2023-08-24T02:57:02;10.73;;;9.83;;
12474;SDS011;6302;42.624;23.334;2023-08-24T02:59:28;11.97;;;10.53;;
12474;SDS011;6302;42.624;23.334;2023-08-24T03:01:55;11.17;;;9.97;;
12474;SDS011;6302;42.624;23.334;2023-08-24T03:04:22;11.47;;;10.27;;
12474;SDS011;6302;42.624;23.334;2023-08-24T03:06:49;11.40;;;10.40;;
12474;SDS011;6302;42.624;23.334;2023-08-24T03:09:16;11.50;;;10.60;;
12474;SDS011;6302;42.624;23.334;2023-08-24T03:11:44;10.67;;;9.67;;
12474;SDS011;6302;42.624;23.334;2023-08-24T03:14:11;10.90;;;9.80;;
12474;SDS011;6302;42.624;23.334;2023-08-24T03:16:37;10.20;;;9.13;;
12474;SDS011;6302;42.624;23.334;2023-08-24T03:19:04;10.33;;;9.40;;
12474;SDS011;6302;42.624;23.334;2023-08-24T03:21:32;11.33;;;10.13;;
12474;SDS011;6302;42.624;23.334;2023-08-24T03:23:59;13.43;;;9.53;;
12474;SDS011;6302;42.624;23.334;2023-08-24T03:26:26;11.10;;;10.00;;
12474;SDS011;6302;42.624;23.334;2023-08-24T03:28:55;12.10;;;10.90;;
12474;SDS011;6302;42.624;23.334;2023-08-24T03:31:22;14.13;;;11.90;;
12474;SDS011;6302;42.624;23.334;2023-08-24T03:33:48;13.97;;;12.70;;
12474;SDS011;6302;42.624;23.334;2023-08-24T03:36:15;16.60;;;13.47;;
12474;SDS011;6302;42.624;23.334;2023-08-24T03:38:42;13.63;;;12.23;;
12474;SDS011;6302;42.624;23.334;2023-08-24T03:41:08;15.23;;;12.53;;
12474;SDS011;6302;42.624;23.334;2023-08-24T03:43:35;13.57;;;12.20;;
12474;SDS011;6302;42.624;23.334;2023-08-24T03:46:04;14.63;;;13.23;;
12474;SDS011;6302;42.624;23.334;2023-08-24T03:48:31;13.97;;;12.47;;
12474;SDS011;6302;42.624;23.334;2023-08-24T03:50:58;14.00;;;12.77;;
12474;SDS011;6302;42.624;23.334;2023-08-24T03:53:25;13.73;;;12.40;;
12474;SDS011;6302;42.624;23.334;2023-08-24T03:55:52;17.35;;;11.93;;
12474;SDS011;6302;42.624;23.334;2023-08-24T03:58:20;13.50;;;12.30;;
12474;SDS011;6302;42.624;23.334;2023-08-24T04:00:47;14.50;;;12.70;;
12474;SDS011;6302;42.624;23.334;2023-08-24T04:03:15;13.80;;;12.40;;
12474;SDS011;6302;42.624;23.334;2023-08-24T04:05:42;14.13;;;12.73;;
12474;SDS011;6302;42.624;23.334;2023-08-24T04:08:09;13.67;;;12.47;;
12474;SDS011;6302;42.624;23.334;2023-08-24T04:10:35;14.70;;;13.30;;
12474;SDS011;6302;42.624;23.334;2023-08-24T04:13:03;15.57;;;12.33;;
12474;SDS011;6302;42.624;23.334;2023-08-24T04:15:30;14.40;;;12.90;;
12474;SDS011;6302;42.624;23.334;2023-08-24T04:17:57;14.27;;;12.97;;
12474;SDS011;6302;42.624;23.334;2023-08-24T04:20:25;13.77;;;12.43;;
12474;SDS011;6302;42.624;23.334;2023-08-24T04:22:52;14.63;;;13.07;;
12474;SDS011;6302;42.624;23.334;2023-08-24T04:25:19;15.03;;;13.47;;
12474;SDS011;6302;42.624;23.334;2023-08-24T04:27:46;15.53;;;12.97;;
12474;SDS011;6302;42.624;23.334;2023-08-24T04:30:12;14.50;;;13.07;;
12474;SDS011;6302;42.624;23.334;2023-08-24T04:32:39;14.17;;;12.87;;
12474;SDS011;6302;42.624;23.334;2023-08-24T04:35:06;14.23;;;12.40;;
12474;SDS011;6302;42.624;23.334;2023-08-24T04:37:36;13.23;;;12.03;;
12474;SDS011;6302;42.624;23.334;2023-08-24T04:40:04;13.50;;;12.30;;
12474;SDS011;6302;42.624;23.334;2023-08-24T04:42:32;15.97;;;13.13;;
12474;SDS011;6302;42.624;23.334;2023-08-24T04:44:59;15.33;;;13.20;;
12474;SDS011;6302;42.624;23.334;2023-08-24T04:47:26;14.13;;;12.67;;
12474;SDS011;6302;42.624;23.334;2023-08-24T04:49:53;15.03;;;13.40;;
12474;SDS011;6302;42.624;23.334;2023-08-24T04:52:19;14.80;;;13.40;;
12474;SDS011;6302;42.624;23.334;2023-08-24T04:54:48;15.23;;;13.73;;
12474;SDS011;6302;42.624;23.334;2023-08-24T04:57:14;14.83;;;13.23;;
12474;SDS011;6302;42.624;23.334;2023-08-24T04:59:41;15.23;;;13.93;;
12474;SDS011;6302;42.624;23.334;2023-08-24T05:02:09;16.90;;;13.97;;
12474;SDS011;6302;42.624;23.334;2023-08-24T05:04:36;15.27;;;13.83;;
12474;SDS011;6302;42.624;23.334;2023-08-24T05:07:02;14.60;;;13.13;;
12474;SDS011;6302;42.624;23.334;2023-08-24T05:09:29;15.53;;;13.20;;
12474;SDS011;6302;42.624;23.334;2023-08-24T05:11:57;13.90;;;12.50;;
12474;SDS011;6302;42.624;23.334;2023-08-24T05:14:24;17.58;;;12.35;;
12474;SDS011;6302;42.624;23.334;2023-08-24T05:16:51;22.65;;;12.75;;
12474;SDS011;6302;42.624;23.334;2023-08-24T05:19:18;16.33;;;12.73;;
12474;SDS011;6302;42.624;23.334;2023-08-24T05:21:44;13.87;;;12.63;;
12474;SDS011;6302;42.624;23.334;2023-08-24T05:24:12;13.90;;;12.60;;
12474;SDS011;6302;42.624;23.334;2023-08-24T05:26:39;21.00;;;13.33;;
12474;SDS011;6302;42.624;23.334;2023-08-24T05:29:07;13.93;;;12.50;;
12474;SDS011;6302;42.624;23.334;2023-08-24T05:31:33;15.07;;;13.53;;
12474;SDS011;6302;42.624;23.334;2023-08-24T05:34:00;19.80;;;14.17;;
12474;SDS011;6302;42.624;23.334;2023-08-24T05:36:27;16.38;;;14.35;;
12474;SDS011;6302;42.624;23.334;2023-08-24T05:38:54;17.63;;;13.93;;
12474;SDS011;6302;42.624;23.334;2023-08-24T05:41:21;34.30;;;15.50;;
12474;SDS011;6302;42.624;23.334;2023-08-24T05:43:48;21.07;;;14.53;;
12474;SDS011;6302;42.624;23.334;2023-08-24T05:46:19;21.53;;;13.93;;
12474;SDS011;6302;42.624;23.334;2023-08-24T05:48:45;17.13;;;13.70;;
12474;SDS011;6302;42.624;23.334;2023-08-24T05:51:12;18.30;;;14.13;;
12474;SDS011;6302;42.624;23.334;2023-08-24T05:53:39;15.95;;;13.60;;
12474;SDS011;6302;42.624;23.334;2023-08-24T05:56:06;14.73;;;13.23;;
12474;SDS011;6302;42.624;23.334;2023-08-24T05:58:33;21.13;;;14.63;;
12474;SDS011;6302;42.624;23.334;2023-08-24T06:01:00;27.03;;;15.90;;
12474;SDS011;6302;42.624;23.334;2023-08-24T06:03:28;19.57;;;15.73;;
12474;SDS011;6302;42.624;23.334;2023-08-24T06:06:00;20.73;;;15.87;;
12474;SDS011;6302;42.624;23.334;2023-08-24T06:08:28;18.43;;;16.43;;
12474;SDS011;6302;42.624;23.334;2023-08-24T06:10:55;28.50;;;19.43;;
12474;SDS011;6302;42.624;23.334;2023-08-24T06:13:22;21.47;;;18.43;;
12474;SDS011;6302;42.624;23.334;2023-08-24T06:15:49;23.23;;;18.08;;
12474;SDS011;6302;42.624;23.334;2023-08-24T06:18:15;24.80;;;19.17;;
12474;SDS011;6302;42.624;23.334;2023-08-24T06:20:44;26.25;;;18.17;;
12474;SDS011;6302;42.624;23.334;2023-08-24T06:23:11;22.37;;;19.50;;
12474;SDS011;6302;42.624;23.334;2023-08-24T06:25:38;25.67;;;19.97;;
12474;SDS011;6302;42.624;23.334;2023-08-24T06:28:05;23.63;;;19.30;;
12474;SDS011;6302;42.624;23.334;2023-08-24T06:30:36;22.97;;;19.47;;
12474;SDS011;6302;42.624;23.334;2023-08-24T06:33:04;25.47;;;20.13;;
12474;SDS011;6302;42.624;23.334;2023-08-24T06:35:31;22.23;;;18.20;;
12474;SDS011;6302;42.624;23.334;2023-08-24T06:38:00;23.60;;;18.73;;
12474;SDS011;6302;42.624;23.334;2023-08-24T06:40:27;20.50;;;18.20;;
12474;SDS011;6302;42.624;23.334;2023-08-24T06:42:53;23.98;;;17.88;;
12474;SDS011;6302;42.624;23.334;2023-08-24T06:45:20;19.95;;;17.45;;
12474;SDS011;6302;42.624;23.334;2023-08-24T06:47:47;21.48;;;17.40;;
12474;SDS011;6302;42.624;23.334;2023-08-24T06:50:14;27.17;;;17.77;;
12474;SDS011;6302;42.624;23.334;2023-08-24T06:52:41;21.05;;;18.63;;
12474;SDS011;6302;42.624;23.334;2023-08-24T06:55:09;24.50;;;18.60;;
12474;SDS011;6302;42.624;23.334;2023-08-24T06:57:37;20.73;;;18.42;;
12474;SDS011;6302;42.624;23.334;2023-08-24T07:00:04;22.25;;;19.02;;
12474;SDS011;6302;42.624;23.334;2023-08-24T07:02:34;23.08;;;18.98;;
12474;SDS011;6302;42.624;23.334;2023-08-24T07:05:01;23.38;;;19.75;;
12474;SDS011;6302;42.624;23.334;2023-08-24T07:07:30;23.50;;;19.20;;
12474;SDS011;6302;42.624;23.334;2023-08-24T07:09:57;20.43;;;18.33;;
12474;SDS011;6302;42.624;23.334;2023-08-24T07:12:25;20.23;;;16.75;;
12474;SDS011;6302;42.624;23.334;2023-08-24T07:14:52;24.95;;;17.90;;
12474;SDS011;6302;42.624;23.334;2023-08-24T07:17:19;19.92;;;17.35;;
12474;SDS011;6302;42.624;23.334;2023-08-24T07:19:49;18.42;;;16.60;;
12474;SDS011;6302;42.624;23.334;2023-08-24T07:22:16;16.92;;;15.32;;
12474;SDS011;6302;42.624;23.334;2023-08-24T07:24:45;17.00;;;14.98;;
12474;SDS011;6302;42.624;23.334;2023-08-24T07:27:13;16.15;;;14.20;;
12474;SDS011;6302;42.624;23.334;2023-08-24T07:29:43;18.58;;;14.77;;
12474;SDS011;6302;42.624;23.334;2023-08-24T07:32:10;15.23;;;13.68;;
12474;SDS011;6302;42.624;23.334;2023-08-24T07:34:37;18.70;;;14.45;;
12474;SDS011;6302;42.624;23.334;2023-08-24T07:37:03;17.17;;;13.98;;
12474;SDS011;6302;42.624;23.334;2023-08-24T07:39:32;21.52;;;14.10;;
12474;SDS011;6302;42.624;23.334;2023-08-24T07:41:58;15.02;;;13.10;;
12474;SDS011;6302;42.624;23.334;2023-08-24T07:44:25;15.38;;;13.75;;
12474;SDS011;6302;42.624;23.334;2023-08-24T07:46:54;14.63;;;13.13;;
12474;SDS011;6302;42.624;23.334;2023-08-24T07:49:20;17.77;;;12.73;;
12474;SDS011;6302;42.624;23.334;2023-08-24T07:51:47;16.85;;;14.07;;
12474;SDS011;6302;42.624;23.334;2023-08-24T07:54:14;16.27;;;13.57;;
12474;SDS011;6302;42.624;23.334;2023-08-24T07:56:41;15.95;;;13.77;;
12474;SDS011;6302;42.624;23.334;2023-08-24T07:59:08;16.92;;;13.75;;
12474;SDS011;6302;42.624;23.334;2023-08-24T08:01:35;18.15;;;14.38;;
12474;SDS011;6302;42.624;23.334;2023-08-24T08:04:03;16.58;;;14.48;;
12474;SDS011;6302;42.624;23.334;2023-08-24T08:06:31;16.08;;;14.15;;
12474;SDS011;6302;42.624;23.334;2023-08-24T08:08:57;16.23;;;14.52;;
12474;SDS011;6302;42.624;23.334;2023-08-24T08:11:24;21.38;;;15.15;;
12474;SDS011;6302;42.624;23.334;2023-08-24T08:13:51;16.92;;;14.18;;
12474;SDS011;6302;42.624;23.334;2023-08-24T08:16:18;16.40;;;14.32;;
12474;SDS011;6302;42.624;23.334;2023-08-24T08:18:44;20.27;;;14.18;;
12474;SDS011;6302;42.624;23.334;2023-08-24T08:21:14;18.98;;;13.93;;
12474;SDS011;6302;42.624;23.334;2023-08-24T08:23:42;19.88;;;14.75;;
12474;SDS011;6302;42.624;23.334;2023-08-24T08:26:10;18.85;;;14.50;;
12474;SDS011;6302;42.624;23.334;2023-08-24T08:28:38;18.33;;;14.40;;
12474;SDS011;6302;42.624;23.334;2023-08-24T08:31:05;16.55;;;13.02;;
12474;SDS011;6302;42.624;23.334;2023-08-24T08:33:32;16.00;;;13.88;;
12474;SDS011;6302;42.624;23.334;2023-08-24T08:35:59;16.10;;;12.95;;
12474;SDS011;6302;42.624;23.334;2023-08-24T08:38:27;18.38;;;12.85;;
12474;SDS011;6302;42.624;23.334;2023-08-24T08:40:55;14.02;;;12.68;;
12474;SDS011;6302;42.624;23.334;2023-08-24T08:43:22;12.95;;;11.65;;
12474;SDS011;6302;42.624;23.334;2023-08-24T08:45:49;17.85;;;13.35;;
12474;SDS011;6302;42.624;23.334;2023-08-24T08:48:19;15.40;;;12.48;;
12474;SDS011;6302;42.624;23.334;2023-08-24T08:50:48;26.65;;;13.68;;
12474;SDS011;6302;42.624;23.334;2023-08-24T08:53:15;14.35;;;10.45;;
12474;SDS011;6302;42.624;23.334;2023-08-24T08:55:43;13.13;;;11.27;;
12474;SDS011;6302;42.624;23.334;2023-08-24T08:58:11;12.63;;;10.95;;
12474;SDS011;6302;42.624;23.334;2023-08-24T09:00:39;13.20;;;10.30;;
12474;SDS011;6302;42.624;23.334;2023-08-24T09:03:07;11.35;;;10.10;;
12474;SDS011;6302;42.624;23.334;2023-08-24T09:05:35;11.82;;;10.60;;
12474;SDS011;6302;42.624;23.334;2023-08-24T09:08:04;12.68;;;11.48;;
12474;SDS011;6302;42.624;23.334;2023-08-24T09:10:31;12.75;;;11.48;;
12474;SDS011;6302;42.624;23.334;2023-08-24T09:12:59;13.43;;;12.13;;
12474;SDS011;6302;42.624;23.334;2023-08-24T09:15:27;13.73;;;12.05;;
12474;SDS011;6302;42.624;23.334;2023-08-24T09:18:01;13.85;;;12.52;;
12474;SDS011;6302;42.624;23.334;2023-08-24T09:20:28;13.45;;;11.90;;
12474;SDS011;6302;42.624;23.334;2023-08-24T09:22:55;13.73;;;12.30;;
12474;SDS011;6302;42.624;23.334;2023-08-24T09:25:22;13.38;;;12.07;;
12474;SDS011;6302;42.624;23.334;2023-08-24T09:27:55;13.18;;;11.93;;
12474;SDS011;6302;42.624;23.334;2023-08-24T09:30:24;13.25;;;11.95;;
12474;SDS011;6302;42.624;23.334;2023-08-24T09:32:55;13.43;;;12.02;;
12474;SDS011;6302;42.624;23.334;2023-08-24T09:35:26;13.32;;;11.57;;
12474;SDS011;6302;42.624;23.334;2023-08-24T09:37:53;13.32;;;12.02;;
12474;SDS011;6302;42.624;23.334;2023-08-24T09:40:23;13.18;;;11.52;;
12474;SDS011;6302;42.624;23.334;2023-08-24T09:42:51;13.63;;;12.45;;
12474;SDS011;6302;42.624;23.334;2023-08-24T09:45:18;14.23;;;12.07;;
12474;SDS011;6302;42.624;23.334;2023-08-24T09:47:46;13.15;;;12.00;;
12474;SDS011;6302;42.624;23.334;2023-08-24T09:50:16;13.80;;;12.45;;
12474;SDS011;6302;42.624;23.334;2023-08-24T09:52:43;13.38;;;12.07;;
12474;SDS011;6302;42.624;23.334;2023-08-24T09:55:13;14.73;;;11.63;;
12474;SDS011;6302;42.624;23.334;2023-08-24T09:57:44;12.90;;;11.63;;
12474;SDS011;6302;42.624;23.334;2023-08-24T10:00:13;13.18;;;11.95;;
12474;SDS011;6302;42.624;23.334;2023-08-24T10:02:44;13.27;;;11.13;;
12474;SDS011;6302;42.624;23.334;2023-08-24T10:05:17;12.68;;;11.48;;
12474;SDS011;6302;42.624;23.334;2023-08-24T10:07:48;12.70;;;11.68;;
12474;SDS011;6302;42.624;23.334;2023-08-24T10:10:18;12.25;;;11.18;;
12474;SDS011;6302;42.624;23.334;2023-08-24T10:12:47;11.20;;;10.20;;
12474;SDS011;6302;42.624;23.334;2023-08-24T10:15:18;47.53;;;12.82;;
12474;SDS011;6302;42.624;23.334;2023-08-24T10:17:47;12.25;;;11.05;;
12474;SDS011;6302;42.624;23.334;2023-08-24T10:20:17;10.02;;;9.20;;
12474;SDS011;6302;42.624;23.334;2023-08-24T10:22:46;12.13;;;10.63;;
12474;SDS011;6302;42.624;23.334;2023-08-24T10:25:14;11.77;;;9.70;;
12474;SDS011;6302;42.624;23.334;2023-08-24T10:27:42;13.18;;;10.15;;
12474;SDS011;6302;42.624;23.334;2023-08-24T10:30:13;13.15;;;11.77;;
12474;SDS011;6302;42.624;23.334;2023-08-24T10:32:40;11.70;;;10.55;;
12474;SDS011;6302;42.624;23.334;2023-08-24T10:35:12;11.65;;;10.48;;
12474;SDS011;6302;42.624;23.334;2023-08-24T10:37:40;13.75;;;10.65;;
12474;SDS011;6302;42.624;23.334;2023-08-24T10:40:11;11.65;;;10.48;;
12474;SDS011;6302;42.624;23.334;2023-08-24T10:42:45;14.23;;;11.57;;
12474;SDS011;6302;42.624;23.334;2023-08-24T10:45:13;12.93;;;11.63;;
12474;SDS011;6302;42.624;23.334;2023-08-24T10:47:44;13.35;;;12.10;;
12474;SDS011;6302;42.624;23.334;2023-08-24T10:50:13;13.60;;;11.85;;
12474;SDS011;6302;42.624;23.334;2023-08-24T10:52:42;11.82;;;10.73;;
12474;SDS011;6302;42.624;23.334;2023-08-24T10:55:22;12.15;;;10.52;;
12474;SDS011;6302;42.624;23.334;2023-08-24T10:57:57;11.40;;;10.02;;
12474;SDS011;6302;42.624;23.334;2023-08-24T11:00:25;12.00;;;10.77;;
12474;SDS011;6302;42.624;23.334;2023-08-24T11:02:54;10.88;;;9.98;;
12474;SDS011;6302;42.624;23.334;2023-08-24T11:05:23;11.98;;;10.77;;
12474;SDS011;6302;42.624;23.334;2023-08-24T11:07:53;12.15;;;10.95;;
12474;SDS011;6302;42.624;23.334;2023-08-24T11:10:21;11.68;;;10.48;;
12474;SDS011;6302;42.624;23.334;2023-08-24T11:13:05;13.15;;;10.63;;
12474;SDS011;6302;42.624;23.334;2023-08-24T11:15:39;11.90;;;10.77;;
12474;SDS011;6302;42.624;23.334;2023-08-24T11:18:11;19.25;;;11.57;;
12474;SDS011;6302;42.624;23.334;2023-08-24T11:20:40;14.20;;;11.73;;
12474;SDS011;6302;42.624;23.334;2023-08-24T11:23:09;23.02;;;12.23;;
12474;SDS011;6302;42.624;23.334;2023-08-24T11:25:36;15.18;;;11.98;;
12474;SDS011;6302;42.624;23.334;2023-08-24T11:28:03;13.32;;;12.00;;
12474;SDS011;6302;42.624;23.334;2023-08-24T11:30:31;13.68;;;11.68;;
12474;SDS011;6302;42.624;23.334;2023-08-24T11:32:58;13.60;;;12.25;;
12474;SDS011;6302;42.624;23.334;2023-08-24T11:35:25;13.02;;;11.80;;
12474;SDS011;6302;42.624;23.334;2023-08-24T11:37:53;13.35;;;12.02;;
12474;SDS011;6302;42.624;23.334;2023-08-24T11:40:20;13.80;;;12.60;;
12474;SDS011;6302;42.624;23.334;2023-08-24T11:42:53;15.93;;;12.75;;
12474;SDS011;6302;42.624;23.334;2023-08-24T11:45:20;17.08;;;12.75;;
12474;SDS011;6302;42.624;23.334;2023-08-24T11:47:47;14.35;;;12.95;;
12474;SDS011;6302;42.624;23.334;2023-08-24T11:50:14;14.23;;;12.70;;
12474;SDS011;6302;42.624;23.334;2023-08-24T11:52:41;20.48;;;13.23;;
12474;SDS011;6302;42.624;23.334;2023-08-24T11:55:10;14.77;;;11.88;;
12474;SDS011;6302;42.624;23.334;2023-08-24T11:57:37;16.30;;;12.30;;
12474;SDS011;6302;42.624;23.334;2023-08-24T12:00:04;13.82;;;11.05;;
12474;SDS011;6302;42.624;23.334;2023-08-24T12:02:32;11.30;;;10.25;;
12474;SDS011;6302;42.624;23.334;2023-08-24T12:04:59;12.35;;;11.10;;
12474;SDS011;6302;42.624;23.334;2023-08-24T12:07:27;12.45;;;11.15;;
12474;SDS011;6302;42.624;23.334;2023-08-24T12:09:54;12.73;;;11.27;;
12474;SDS011;6302;42.624;23.334;2023-08-24T12:12:22;11.57;;;10.57;;
12474;SDS011;6302;42.624;23.334;2023-08-24T12:14:54;12.38;;;11.23;;
12474;SDS011;6302;42.624;23.334;2023-08-24T12:17:22;12.80;;;11.43;;
12474;SDS011;6302;42.624;23.334;2023-08-24T12:19:56;22.33;;;11.93;;
12474;SDS011;6302;42.624;23.334;2023-08-24T12:22:25;11.10;;;10.02;;
12474;SDS011;6302;42.624;23.334;2023-08-24T12:24:52;12.52;;;10.77;;
12474;SDS011;6302;42.624;23.334;2023-08-24T12:27:19;12.98;;;11.27;;
12474;SDS011;6302;42.624;23.334;2023-08-24T12:29:47;12.52;;;11.25;;
12474;SDS011;6302;42.624;23.334;2023-08-24T12:32:14;13.15;;;11.85;;
12474;SDS011;6302;42.624;23.334;2023-08-24T12:34:45;22.40;;;13.50;;
12474;SDS011;6302;42.624;23.334;2023-08-24T12:37:11;13.50;;;12.30;;
12474;SDS011;6302;42.624;23.334;2023-08-24T12:39:38;13.80;;;12.52;;
12474;SDS011;6302;42.624;23.334;2023-08-24T12:42:06;13.35;;;11.80;;
12474;SDS011;6302;42.624;23.334;2023-08-24T12:44:33;13.07;;;11.85;;
12474;SDS011;6302;42.624;23.334;2023-08-24T12:47:02;12.32;;;11.23;;
12474;SDS011;6302;42.624;23.334;2023-08-24T12:49:30;13.18;;;11.77;;
12474;SDS011;6302;42.624;23.334;2023-08-24T12:51:57;12.70;;;11.50;;
12474;SDS011;6302;42.624;23.334;2023-08-24T12:54:23;12.98;;;11.75;;
12474;SDS011;6302;42.624;23.334;2023-08-24T12:56:50;13.02;;;11.77;;
12474;SDS011;6302;42.624;23.334;2023-08-24T12:59:17;12.18;;;11.18;;
12474;SDS011;6302;42.624;23.334;2023-08-24T13:01:44;12.35;;;11.35;;
12474;SDS011;6302;42.624;23.334;2023-08-24T13:04:12;16.58;;;12.05;;
12474;SDS011;6302;42.624;23.334;2023-08-24T13:06:38;13.50;;;11.88;;
12474;SDS011;6302;42.624;23.334;2023-08-24T13:09:05;13.20;;;11.15;;
12474;SDS011;6302;42.624;23.334;2023-08-24T13:11:32;13.35;;;12.02;;
12474;SDS011;6302;42.624;23.334;2023-08-24T13:13:59;19.80;;;12.20;;
12474;SDS011;6302;42.624;23.334;2023-08-24T13:16:26;12.80;;;11.48;;
12474;SDS011;6302;42.624;23.334;2023-08-24T13:18:53;13.23;;;11.95;;
12474;SDS011;6302;42.624;23.334;2023-08-24T13:21:22;13.70;;;12.38;;
12474;SDS011;6302;42.624;23.334;2023-08-24T13:23:48;13.27;;;12.07;;
12474;SDS011;6302;42.624;23.334;2023-08-24T13:26:18;12.93;;;11.60;;
12474;SDS011;6302;42.624;23.334;2023-08-24T13:28:45;13.65;;;12.13;;
12474;SDS011;6302;42.624;23.334;2023-08-24T13:31:12;12.30;;;11.13;;
12474;SDS011;6302;42.624;23.334;2023-08-24T13:33:39;13.20;;;11.88;;
12474;SDS011;6302;42.624;23.334;2023-08-24T13:36:06;13.13;;;11.73;;
12474;SDS011;6302;42.624;23.334;2023-08-24T13:38:34;13.07;;;11.98;;
12474;SDS011;6302;42.624;23.334;2023-08-24T13:41:01;12.48;;;11.30;;
12474;SDS011;6302;42.624;23.334;2023-08-24T13:43:29;17.73;;;12.50;;
12474;SDS011;6302;42.624;23.334;2023-08-24T13:45:56;12.75;;;11.65;;
12474;SDS011;6302;42.624;23.334;2023-08-24T13:48:22;12.55;;;11.50;;
12474;SDS011;6302;42.624;23.334;2023-08-24T13:50:50;14.25;;;12.80;;
12474;SDS011;6302;42.624;23.334;2023-08-24T13:53:18;16.23;;;14.52;;
12474;SDS011;6302;42.624;23.334;2023-08-24T13:55:46;16.92;;;15.32;;
12474;SDS011;6302;42.624;23.334;2023-08-24T13:58:13;14.07;;;12.73;;
12474;SDS011;6302;42.624;23.334;2023-08-24T14:00:40;14.60;;;13.30;;
12474;SDS011;6302;42.624;23.334;2023-08-24T14:03:07;15.25;;;13.73;;
12474;SDS011;6302;42.624;23.334;2023-08-24T14:05:38;14.30;;;13.00;;
12474;SDS011;6302;42.624;23.334;2023-08-24T14:08:05;12.68;;;11.50;;
12474;SDS011;6302;42.624;23.334;2023-08-24T14:10:33;11.80;;;10.88;;
12474;SDS011;6302;42.624;23.334;2023-08-24T14:13:01;12.75;;;11.57;;
12474;SDS011;6302;42.624;23.334;2023-08-24T14:15:28;13.32;;;11.88;;
12474;SDS011;6302;42.624;23.334;2023-08-24T14:17:55;12.70;;;11.50;;
12474;SDS011;6302;42.624;23.334;2023-08-24T14:20:21;13.68;;;11.77;;
12474;SDS011;6302;42.624;23.334;2023-08-24T14:22:49;12.68;;;11.43;;
12474;SDS011;6302;42.624;23.334;2023-08-24T14:25:16;12.90;;;11.70;;
12474;SDS011;6302;42.624;23.334;2023-08-24T14:27:43;13.00;;;11.63;;